Hovedside
METAR-TAF:

METAR-TAF

Lufthavner :

Burns, Oregon, USA

breddegrad: 43-35-42N, lengdegrad: 118-57-23W, høyde over havet: 1263 m

Gjeldene værobservasjon

Denne rapporten ble laget for 27 minutter siden, klokken 14:07 UTC
Flau vind
Temperatur -1°C
Luftfuktighet 93%
Trykk 1018 hPa
Sikt: 16.1 km
Overskyet i en høyde av 400 ft

METAR: KBNO 051407Z AUTO 00000KT 10SM OVC004 M01/M02 A3006 RMK AO2 T10061022

Tid: 06:34 (14:34 UTC)

Varsel

Denne rapporten ble laget for 1 time og 22 minutter siden, klokken 13:12 UTC
Varsel gyldig fra 05. klokken 13 UTC til 06. klokken 12 UTC
Vind 6 kt fra Sørvest
Sikt: 10 km
Overskyet i en høyde av 600 ft
Fra 05. klokken 2100 UTC
Vind 7 kt fra Sørøst
Sikt: 10 km
Brutte skyer i en høyde av 5000 ft
Fra 06. klokken 0700 UTC
Vind 5 kt fra Nordøst
Sikt: 10 km
Overskyet i en høyde av 500 ft

TAF: KBNO 051312Z 0513/0612 22006KT P6SM OVC006 FM052100 13007KT P6SM BKN050 FM060700 05005KT P6SM OVC005

Værobservasjoner og værvarsel for over 4000 flyplasser (METAR- og TAF-rapporter).

Tilgjengelige stasjoner er representert av de røde og gule prikkene på kartet.

Hold musepekeren over prikken for å se navnet på stasjonen.

Klikk så for å se værobservasjoner og -varsler.

For å forandre kartet kan du klikke på den grønne knappen med svart kryss for å zoome inn, på den grønne knappen med strek for å zoome ut, eller på de grønne pilene for å se tilstøtende kart.


METAR-TAF: